createdAt,value
2018-02-15T00:00:40.938Z,7.83
2018-02-15T00:03:08.460Z,8.43
2018-02-15T00:05:35.900Z,7.63
2018-02-15T00:08:03.377Z,7.73
2018-02-15T00:10:30.925Z,6.63
2018-02-15T00:12:58.328Z,8.70
2018-02-15T00:15:25.852Z,7.50
2018-02-15T00:17:53.297Z,7.80
2018-02-15T00:20:20.760Z,8.07
2018-02-15T00:22:48.199Z,8.10
2018-02-15T00:25:15.624Z,7.10
2018-02-15T00:27:43.851Z,8.20
2018-02-15T00:30:11.287Z,7.60
2018-02-15T00:32:38.720Z,7.30
2018-02-15T00:35:06.929Z,8.50
2018-02-15T00:37:34.348Z,8.43
2018-02-15T00:40:02.559Z,8.23
2018-02-15T00:42:30.024Z,8.80
2018-02-15T00:44:57.460Z,7.70
2018-02-15T00:47:24.941Z,8.03
2018-02-15T00:49:52.367Z,8.27
2018-02-15T00:52:19.788Z,7.30
2018-02-15T00:54:47.224Z,7.23
2018-02-15T00:57:14.676Z,7.63
2018-02-15T00:59:42.109Z,7.67
2018-02-15T01:02:09.584Z,7.70
2018-02-15T01:04:37.008Z,8.30
2018-02-15T01:07:04.435Z,7.70
2018-02-15T01:09:31.875Z,8.57
2018-02-15T01:11:59.413Z,6.17
2018-02-15T01:14:26.870Z,7.43
2018-02-15T01:16:54.326Z,7.13
2018-02-15T01:19:21.753Z,8.67
2018-02-15T01:21:49.241Z,7.73
2018-02-15T01:24:16.696Z,7.63
2018-02-15T01:26:44.128Z,8.07
2018-02-15T01:29:11.615Z,8.53
2018-02-15T01:31:39.063Z,8.47
2018-02-15T01:34:06.524Z,8.90
2018-02-15T01:36:33.953Z,7.70
2018-02-15T01:39:01.388Z,8.47
2018-02-15T01:41:29.576Z,9.83
2018-02-15T01:43:57.763Z,9.83
2018-02-15T01:46:25.198Z,10.33
2018-02-15T01:48:53.392Z,10.27
2018-02-15T01:51:20.824Z,10.70
2018-02-15T01:53:49.040Z,10.30
2018-02-15T01:56:16.508Z,10.30
2018-02-15T01:58:43.944Z,11.00
2018-02-15T02:01:11.381Z,10.10
2018-02-15T02:03:39.572Z,11.27
2018-02-15T02:06:07.009Z,12.17
2018-02-15T02:08:35.217Z,12.67
2018-02-15T02:11:02.636Z,12.03
2018-02-15T02:13:30.828Z,11.63
2018-02-15T02:15:58.269Z,12.93
2018-02-15T02:18:26.483Z,13.30
2018-02-15T02:20:53.916Z,12.97
2018-02-15T02:23:21.351Z,13.33
2018-02-15T02:25:49.576Z,13.97
2018-02-15T02:28:17.036Z,13.57
2018-02-15T02:30:44.492Z,14.77
2018-02-15T02:33:12.049Z,15.43
2018-02-15T02:35:39.452Z,12.83
2018-02-15T02:38:07.680Z,15.23
2018-02-15T02:40:35.116Z,15.47
2018-02-15T02:43:02.543Z,15.33
2018-02-15T02:45:30.764Z,15.73
2018-02-15T02:47:58.223Z,14.73
2018-02-15T02:50:25.680Z,15.23
2018-02-15T02:52:53.131Z,17.17
2018-02-15T02:55:20.552Z,17.47
2018-02-15T02:57:48.740Z,17.60
2018-02-15T03:00:16.223Z,16.93
2018-02-15T03:02:43.653Z,19.03
2018-02-15T03:05:11.085Z,16.93
2018-02-15T03:07:38.519Z,19.37
2018-02-15T03:10:06.056Z,19.87
2018-02-15T03:12:33.484Z,17.50
2018-02-15T03:15:00.968Z,16.83
2018-02-15T03:17:28.399Z,19.57
2018-02-15T03:19:55.884Z,20.10
2018-02-15T03:22:23.340Z,19.50
2018-02-15T03:24:50.797Z,20.87
2018-02-15T03:27:18.256Z,18.47
2018-02-15T03:29:45.696Z,20.23
2018-02-15T03:32:13.121Z,20.50
2018-02-15T03:34:41.316Z,19.30
2018-02-15T03:37:08.764Z,20.93
2018-02-15T03:39:36.956Z,20.77
2018-02-15T03:42:04.384Z,19.87
2018-02-15T03:44:32.594Z,20.27
2018-02-15T03:47:00.014Z,21.27
2018-02-15T03:49:28.212Z,21.10
2018-02-15T03:51:55.653Z,20.67
2018-02-15T03:54:23.869Z,20.63
2018-02-15T03:56:51.300Z,19.90
2018-02-15T03:59:18.746Z,19.30
2018-02-15T04:01:46.936Z,22.27
2018-02-15T04:04:14.411Z,19.07
2018-02-15T04:06:41.884Z,21.10
2018-02-15T04:09:09.332Z,22.47
2018-02-15T04:11:36.788Z,21.20
2018-02-15T04:14:04.235Z,22.10
2018-02-15T04:16:31.668Z,20.60
2018-02-15T04:18:59.156Z,20.17
2018-02-15T04:21:26.607Z,23.23
2018-02-15T04:23:54.072Z,23.40
2018-02-15T04:26:21.632Z,24.37
2018-02-15T04:28:49.071Z,20.63
2018-02-15T04:31:16.496Z,21.00
2018-02-15T04:33:44.720Z,24.00
2018-02-15T04:36:12.178Z,22.20
2018-02-15T04:38:39.607Z,22.37
2018-02-15T04:41:07.028Z,22.50
2018-02-15T04:43:34.650Z,22.73
2018-02-15T04:46:02.047Z,21.50
2018-02-15T04:48:29.566Z,22.47
2018-02-15T04:50:57.017Z,22.50
2018-02-15T04:53:24.444Z,22.27
2018-02-15T04:55:52.633Z,25.23
2018-02-15T04:58:20.071Z,25.47
2018-02-15T05:00:48.292Z,23.20
2018-02-15T05:03:15.719Z,23.63
2018-02-15T05:05:43.156Z,25.23
2018-02-15T05:08:11.370Z,25.53
2018-02-15T05:10:38.788Z,25.07
2018-02-15T05:13:07.113Z,24.83
2018-02-15T05:15:34.557Z,25.43
2018-02-15T05:18:01.982Z,26.40
2018-02-15T05:20:30.198Z,23.97
2018-02-15T05:22:57.659Z,25.83
2018-02-15T05:25:25.097Z,25.57
2018-02-15T05:27:52.574Z,26.00
2018-02-15T05:30:20.033Z,24.53
2018-02-15T05:32:47.452Z,26.30
2018-02-15T05:35:14.908Z,27.37
2018-02-15T05:37:42.337Z,27.47
2018-02-15T05:40:09.760Z,25.17
2018-02-15T05:42:37.214Z,26.97
2018-02-15T05:45:04.640Z,25.77
2018-02-15T05:47:32.068Z,26.63
2018-02-15T05:50:00.282Z,27.27
2018-02-15T05:52:27.707Z,27.23
2018-02-15T05:54:55.932Z,25.30
2018-02-15T05:57:23.374Z,25.83
2018-02-15T05:59:50.795Z,26.43
2018-02-15T06:02:18.992Z,25.80
2018-02-15T06:04:46.470Z,27.27
2018-02-15T06:07:13.961Z,26.33
2018-02-15T06:09:41.462Z,26.23
2018-02-15T06:12:09.726Z,25.43
2018-02-15T06:14:37.975Z,26.50
2018-02-15T06:17:05.455Z,25.40
2018-02-15T06:19:32.952Z,25.27
2018-02-15T06:22:00.435Z,24.60
2018-02-15T06:24:27.937Z,23.47
2018-02-15T06:26:56.317Z,24.80
2018-02-15T06:29:24.563Z,25.93
2018-02-15T06:31:52.150Z,27.67
2018-02-15T06:34:20.420Z,27.00
2018-02-15T06:36:49.402Z,25.63
2018-02-15T06:39:16.882Z,25.63
2018-02-15T06:41:45.157Z,26.60
2018-02-15T06:44:13.402Z,26.17
2018-02-15T06:46:40.996Z,25.87
2018-02-15T06:49:09.254Z,27.93
2018-02-15T06:51:36.734Z,26.97
2018-02-15T06:54:04.986Z,29.13
2018-02-15T06:56:34.006Z,28.47
2018-02-15T06:59:02.258Z,28.50
2018-02-15T07:01:29.742Z,26.73
2018-02-15T07:03:58.110Z,29.23
2018-02-15T07:06:26.361Z,29.17
2018-02-15T07:08:53.942Z,29.23
2018-02-15T07:11:22.206Z,29.60
2018-02-15T07:13:49.793Z,28.77
2018-02-15T07:16:18.054Z,29.10
2018-02-15T07:18:46.316Z,28.27
2018-02-15T07:21:13.799Z,26.83
2018-02-15T07:23:42.048Z,29.90
2018-02-15T07:26:09.622Z,28.10
2018-02-15T07:28:37.870Z,26.07
2018-02-15T07:31:05.347Z,30.07
2018-02-15T07:33:32.918Z,29.27
2018-02-15T07:36:01.172Z,29.53
2018-02-15T07:38:28.646Z,29.83
2018-02-15T07:40:56.926Z,29.60
2018-02-15T07:43:25.170Z,29.50
2018-02-15T07:45:52.663Z,30.10
2018-02-15T07:48:20.923Z,28.30
2018-02-15T07:50:48.402Z,28.20
2018-02-15T07:53:16.654Z,28.23
2018-02-15T07:55:44.149Z,27.67
2018-02-15T07:58:11.630Z,29.03
2018-02-15T08:00:39.118Z,28.47
2018-02-15T08:03:06.613Z,29.30
2018-02-15T08:05:34.870Z,30.17
2018-02-15T08:08:02.437Z,29.67
2018-02-15T08:10:30.721Z,29.83
2018-02-15T08:12:58.969Z,30.00
2018-02-15T08:15:27.218Z,28.27
2018-02-15T08:17:54.746Z,31.10
2018-02-15T08:20:22.290Z,28.97
2018-02-15T08:22:50.574Z,32.40
2018-02-15T08:25:18.038Z,32.13
2018-02-15T08:27:45.514Z,31.00
2018-02-15T08:30:13.036Z,30.80
2018-02-15T08:32:41.298Z,31.30
2018-02-15T08:35:08.779Z,31.27
2018-02-15T08:37:37.044Z,31.13
2018-02-15T08:40:05.318Z,31.30
2018-02-15T08:42:33.566Z,31.33
2018-02-15T08:45:01.042Z,30.93
2018-02-15T08:47:28.614Z,31.13
2018-02-15T08:49:56.174Z,29.50
2018-02-15T08:52:24.422Z,31.50
2018-02-15T08:54:52.006Z,30.27
2018-02-15T08:57:20.284Z,29.50
2018-02-15T08:59:48.561Z,32.50
2018-02-15T09:02:16.825Z,31.03
2018-02-15T09:04:44.306Z,30.70
2018-02-15T09:07:11.850Z,31.27
2018-02-15T09:09:40.118Z,30.93
2018-02-15T09:12:07.686Z,31.43
2018-02-15T09:14:35.968Z,30.53
2018-02-15T09:17:04.222Z,30.93
2018-02-15T09:19:31.702Z,30.53
2018-02-15T09:21:59.978Z,31.13
2018-02-15T09:24:28.242Z,32.47
2018-02-15T09:26:55.720Z,31.37
2018-02-15T09:29:23.964Z,30.63
2018-02-15T09:31:51.558Z,31.30
2018-02-15T09:34:19.855Z,31.00
2018-02-15T09:36:48.074Z,31.57
2018-02-15T09:39:15.590Z,32.83
2018-02-15T09:41:43.070Z,35.27
2018-02-15T09:44:10.570Z,33.73
2018-02-15T09:46:38.831Z,33.47
2018-02-15T09:49:06.310Z,34.63
2018-02-15T09:51:34.617Z,32.87
2018-02-15T09:54:02.111Z,34.90
2018-02-15T09:56:29.595Z,35.03
2018-02-15T09:58:57.846Z,36.60
2018-02-15T10:01:25.346Z,36.63
2018-02-15T10:03:53.591Z,36.70
2018-02-15T10:06:22.582Z,34.23
2018-02-15T10:08:50.158Z,37.53
2018-02-15T10:11:18.434Z,34.60
2018-02-15T10:13:46.686Z,37.50
2018-02-15T10:16:14.185Z,40.97
2018-02-15T10:18:42.439Z,40.20
2018-02-15T10:21:09.918Z,37.17
2018-02-15T10:23:38.275Z,37.70
2018-02-15T10:26:05.854Z,37.47
2018-02-15T10:28:33.430Z,38.23
2018-02-15T10:31:01.694Z,35.73
2018-02-15T10:33:29.266Z,36.00
2018-02-15T10:35:57.539Z,37.23
2018-02-15T10:38:25.033Z,38.90
2018-02-15T10:40:52.513Z,34.87
2018-02-15T10:43:19.990Z,35.50
2018-02-15T10:45:47.506Z,33.83
2018-02-15T10:48:15.052Z,34.30
2018-02-15T10:50:42.608Z,36.33
2018-02-15T10:53:11.071Z,34.23
2018-02-15T10:55:39.326Z,34.80
2018-02-15T10:58:06.802Z,36.60
2018-02-15T11:00:40.822Z,32.77
2018-02-15T11:03:14.936Z,32.13
2018-02-15T11:05:45.762Z,34.10
2018-02-15T11:08:14.043Z,34.20
2018-02-15T11:10:42.314Z,32.43
2018-02-15T11:13:10.590Z,37.97
2018-02-15T11:15:38.854Z,35.63
2018-02-15T11:18:06.332Z,35.30
2018-02-15T11:20:34.598Z,34.57
2018-02-15T11:23:02.076Z,32.90
2018-02-15T11:25:30.326Z,32.93
2018-02-15T11:27:57.825Z,34.67
2018-02-15T11:30:25.361Z,30.73
2018-02-15T11:32:53.606Z,31.83
2018-02-15T11:35:21.912Z,34.97
2018-02-15T11:37:50.188Z,32.83
2018-02-15T11:40:19.348Z,34.63
2018-02-15T11:42:46.943Z,39.90
2018-02-15T11:45:15.206Z,39.20
2018-02-15T11:47:42.784Z,35.97
2018-02-15T11:50:11.057Z,36.93
2018-02-15T11:52:39.327Z,41.57
2018-02-15T11:55:07.634Z,38.77
2018-02-15T11:57:35.126Z,40.57
2018-02-15T12:00:02.620Z,40.10
2018-02-15T12:02:30.867Z,41.47
2018-02-15T12:04:58.366Z,44.77
2018-02-15T12:07:26.642Z,41.13
2018-02-15T12:09:54.942Z,43.10
2018-02-15T12:12:22.478Z,42.20
2018-02-15T12:14:50.726Z,43.57
2018-02-15T12:17:18.361Z,43.70
2018-02-15T12:19:45.966Z,45.27
2018-02-15T12:22:14.219Z,47.30
2018-02-15T12:24:42.502Z,46.67
2018-02-15T12:27:10.008Z,49.63
2018-02-15T12:29:37.506Z,46.07
2018-02-15T12:32:05.105Z,51.10
2018-02-15T12:34:33.386Z,55.67
2018-02-15T12:37:01.648Z,50.00
2018-02-15T12:39:29.129Z,50.30
2018-02-15T12:41:56.670Z,49.97
2018-02-15T12:44:24.941Z,48.30
2018-02-15T12:46:53.185Z,53.00
2018-02-15T12:49:20.786Z,51.83
2018-02-15T12:51:49.048Z,48.20
2018-02-15T12:54:17.310Z,47.33
2018-02-15T12:56:44.897Z,47.00
2018-02-15T12:59:13.162Z,52.13
2018-02-15T13:01:42.296Z,46.70
2018-02-15T13:04:09.801Z,47.70
2018-02-15T13:06:37.289Z,47.07
2018-02-15T13:09:05.544Z,48.43
2018-02-15T13:11:34.591Z,47.37
2018-02-15T13:14:02.106Z,44.50
2018-02-15T13:16:42.193Z,44.27
2018-02-15T13:19:21.742Z,43.37
2018-02-15T13:21:49.248Z,42.57
2018-02-15T13:24:18.294Z,40.47
2018-02-15T13:26:45.782Z,40.27
2018-02-15T13:29:13.286Z,41.37
2018-02-15T13:31:41.546Z,37.77
2018-02-15T13:34:09.026Z,37.13
2018-02-15T13:36:36.527Z,36.47
2018-02-15T13:39:04.026Z,35.27
2018-02-15T13:41:32.294Z,36.53
2018-02-15T13:44:00.618Z,34.27
2018-02-15T13:46:28.091Z,32.83
2018-02-15T13:48:55.594Z,33.20
2018-02-15T13:51:23.974Z,32.97
2018-02-15T13:53:52.218Z,31.97
2018-02-15T13:56:19.735Z,26.57
2018-02-15T13:58:47.250Z,26.70
2018-02-15T14:01:14.731Z,25.33
2018-02-15T14:03:42.979Z,26.70
2018-02-15T14:06:12.072Z,26.83
2018-02-15T14:08:41.102Z,22.90
2018-02-15T14:11:08.607Z,27.37
2018-02-15T14:13:36.103Z,24.50
2018-02-15T14:16:04.348Z,19.03
2018-02-15T14:18:31.944Z,18.13
2018-02-15T14:21:00.212Z,18.10
2018-02-15T14:23:28.490Z,16.37
2018-02-15T14:25:56.790Z,15.53
2018-02-15T14:28:24.290Z,15.97
2018-02-15T14:30:51.783Z,14.50
2018-02-15T14:33:20.031Z,15.93
2018-02-15T14:35:47.666Z,16.27
2018-02-15T14:38:15.162Z,14.17
2018-02-15T14:40:44.172Z,14.40
2018-02-15T14:43:12.446Z,13.43
2018-02-15T14:45:40.690Z,9.40
2018-02-15T14:48:08.170Z,8.27
2018-02-15T14:50:35.654Z,7.43
2018-02-15T14:53:03.201Z,7.47
2018-02-15T14:55:31.466Z,6.57
2018-02-15T14:57:59.063Z,6.17
2018-02-15T15:00:26.555Z,4.70
2018-02-15T15:02:54.066Z,4.23
2018-02-15T15:05:22.430Z,4.00
2018-02-15T15:07:50.861Z,4.27
2018-02-15T15:10:18.353Z,4.80
2018-02-15T15:12:45.878Z,5.63
2018-02-15T15:15:13.372Z,5.17
2018-02-15T15:17:41.662Z,4.60
2018-02-15T15:20:09.971Z,5.43
2018-02-15T15:22:37.602Z,4.77
2018-02-15T15:25:05.852Z,4.53
2018-02-15T15:27:33.356Z,5.17
2018-02-15T15:30:00.842Z,4.23
2018-02-15T15:32:28.323Z,3.33
2018-02-15T15:34:55.944Z,3.57
2018-02-15T15:37:23.474Z,3.67
2018-02-15T15:39:51.725Z,3.70
2018-02-15T15:42:20.066Z,3.17
2018-02-15T15:44:47.574Z,3.43
2018-02-15T15:47:15.862Z,3.77
2018-02-15T15:49:44.138Z,3.33
2018-02-15T15:52:12.378Z,4.13
2018-02-15T15:54:39.878Z,3.47
2018-02-15T15:57:08.282Z,3.30
2018-02-15T15:59:35.813Z,3.20
2018-02-15T16:02:04.066Z,3.60
2018-02-15T16:04:32.360Z,3.03
2018-02-15T16:07:00.641Z,3.30
2018-02-15T16:09:28.902Z,3.40
2018-02-15T16:11:56.406Z,3.13
2018-02-15T16:14:24.726Z,2.87
2018-02-15T16:16:52.202Z,3.60
2018-02-15T16:19:20.478Z,3.23
2018-02-15T16:21:48.754Z,2.67
2018-02-15T16:24:17.039Z,4.13
2018-02-15T16:26:45.308Z,3.00
2018-02-15T16:29:13.564Z,3.43
2018-02-15T16:31:41.042Z,3.73
2018-02-15T16:34:09.312Z,3.30
2018-02-15T16:36:38.341Z,3.40
2018-02-15T16:39:05.879Z,3.07
2018-02-15T16:41:34.182Z,4.70
2018-02-15T16:44:01.725Z,12.00
2018-02-15T16:46:29.210Z,12.63
2018-02-15T16:48:57.047Z,20.93
2018-02-15T16:51:25.349Z,13.30
2018-02-15T16:53:53.645Z,25.17
2018-02-15T16:56:21.239Z,26.93
2018-02-15T16:58:49.526Z,14.50
2018-02-15T17:01:17.788Z,7.20
2018-02-15T17:03:45.366Z,8.33
2018-02-15T17:06:13.650Z,5.70
2018-02-15T17:08:41.201Z,8.07
2018-02-15T17:11:09.458Z,5.90
2018-02-15T17:13:36.946Z,17.57
2018-02-15T17:16:05.214Z,32.20
2018-02-15T17:18:33.478Z,23.37
2018-02-15T17:21:01.727Z,13.80
2018-02-15T17:23:29.210Z,10.90
2018-02-15T17:25:57.503Z,6.47
2018-02-15T17:28:25.734Z,4.33
2018-02-15T17:30:53.214Z,4.03
2018-02-15T17:33:20.717Z,7.43
2018-02-15T17:35:48.200Z,6.20
2018-02-15T17:38:15.710Z,7.63
2018-02-15T17:40:44.078Z,8.03
2018-02-15T17:43:12.354Z,12.83
2018-02-15T17:45:40.638Z,14.18
2018-02-15T17:48:09.010Z,19.97
2018-02-15T17:50:37.258Z,22.93
2018-02-15T17:53:04.738Z,24.13
2018-02-15T17:55:33.023Z,22.13
2018-02-15T17:58:01.310Z,17.27
2018-02-15T18:00:29.574Z,14.57
2018-02-15T18:02:57.955Z,10.27
2018-02-15T18:05:26.194Z,8.00
2018-02-15T18:07:53.674Z,12.00
2018-02-15T18:10:21.961Z,11.97
2018-02-15T18:12:50.206Z,14.87
2018-02-15T18:15:17.688Z,20.33
2018-02-15T18:17:45.963Z,24.10
2018-02-15T18:20:13.446Z,23.10
2018-02-15T18:22:41.694Z,22.43
2018-02-15T18:25:09.202Z,19.57
2018-02-15T18:27:36.721Z,15.60
2018-02-15T18:30:04.321Z,15.30
2018-02-15T18:32:32.682Z,14.80
2018-02-15T18:35:00.943Z,16.10
2018-02-15T18:37:28.522Z,14.50
2018-02-15T18:39:56.854Z,15.23
2018-02-15T18:42:24.343Z,17.57
2018-02-15T18:44:51.839Z,16.47
2018-02-15T18:47:19.469Z,14.50
2018-02-15T18:49:46.914Z,12.43
2018-02-15T18:52:14.397Z,10.60
2018-02-15T18:54:42.656Z,9.57
2018-02-15T18:57:10.942Z,7.07
2018-02-15T18:59:39.182Z,6.87
2018-02-15T19:02:06.779Z,5.30
2018-02-15T19:04:35.079Z,11.23
2018-02-15T19:07:02.571Z,5.40
2018-02-15T19:09:30.172Z,4.37
2018-02-15T19:11:58.448Z,5.40
2018-02-15T19:14:26.694Z,6.40
2018-02-15T19:16:54.192Z,6.20
2018-02-15T19:19:22.454Z,5.97
2018-02-15T19:21:50.701Z,5.70
2018-02-15T19:24:18.198Z,5.37
2018-02-15T19:26:46.455Z,4.90
2018-02-15T19:29:14.715Z,4.77
2018-02-15T19:31:42.210Z,5.77
2018-02-15T19:34:10.474Z,5.67
2018-02-15T19:36:38.746Z,5.10
2018-02-15T19:39:07.002Z,5.67
2018-02-15T19:41:34.541Z,11.30
2018-02-15T19:44:02.020Z,14.67
2018-02-15T19:46:29.522Z,17.13
2018-02-15T19:48:57.024Z,15.00
2018-02-15T19:51:24.535Z,13.87
2018-02-15T19:53:52.806Z,12.20
2018-02-15T19:56:21.050Z,10.07
2018-02-15T19:58:48.526Z,9.70
2018-02-15T20:01:16.841Z,16.30
2018-02-15T20:03:44.328Z,12.90
2018-02-15T20:06:11.806Z,10.70
2018-02-15T20:08:39.299Z,8.47
2018-02-15T20:11:06.802Z,8.73
2018-02-15T20:13:34.298Z,10.33
2018-02-15T20:16:02.559Z,9.47
2018-02-15T20:18:30.054Z,7.73
2018-02-15T20:20:57.587Z,7.17
2018-02-15T20:23:25.858Z,6.70
2018-02-15T20:25:59.002Z,7.00
2018-02-15T20:28:26.490Z,6.33
2018-02-15T20:30:54.103Z,6.83
2018-02-15T20:33:21.806Z,6.30
2018-02-15T20:35:49.294Z,8.00
2018-02-15T20:38:23.310Z,9.60
2018-02-15T20:40:51.579Z,8.73
2018-02-15T20:43:20.295Z,7.53
2018-02-15T20:45:47.838Z,5.87
2018-02-15T20:48:16.210Z,5.80
2018-02-15T20:50:50.220Z,9.20
2018-02-15T20:53:24.430Z,6.43
2018-02-15T20:55:51.910Z,5.77
2018-02-15T20:58:20.242Z,5.27
2018-02-15T21:00:47.734Z,5.23
2018-02-15T21:03:15.978Z,6.40
2018-02-15T21:05:43.455Z,6.43
2018-02-15T21:08:11.719Z,7.37
2018-02-15T21:10:39.330Z,9.20
2018-02-15T21:13:06.877Z,13.20
2018-02-15T21:15:34.371Z,19.70
2018-02-15T21:18:01.878Z,11.07
2018-02-15T21:20:30.162Z,9.80
2018-02-15T21:22:58.422Z,8.47
2018-02-15T21:25:25.994Z,8.60
2018-02-15T21:27:54.262Z,6.87
2018-02-15T21:30:22.527Z,7.43
2018-02-15T21:32:50.780Z,6.63
2018-02-15T21:35:18.374Z,5.23
2018-02-15T21:37:46.668Z,5.70
2018-02-15T21:40:14.490Z,5.77
2018-02-15T21:42:41.974Z,5.70
2018-02-15T21:45:10.262Z,6.10
2018-02-15T21:47:38.511Z,5.43
2018-02-15T21:50:06.010Z,6.30
2018-02-15T21:52:33.550Z,5.37
2018-02-15T21:55:01.818Z,5.93
2018-02-15T21:57:30.080Z,5.20
2018-02-15T21:59:57.595Z,5.13
2018-02-15T22:02:25.077Z,5.37
2018-02-15T22:04:52.564Z,5.30
2018-02-15T22:07:20.096Z,5.70
2018-02-15T22:09:47.587Z,6.53
2018-02-15T22:12:16.078Z,10.77
2018-02-15T22:14:43.586Z,8.80
2018-02-15T22:17:11.121Z,6.70
2018-02-15T22:19:38.573Z,5.83
2018-02-15T22:22:06.006Z,5.90
2018-02-15T22:24:33.436Z,7.03
2018-02-15T22:27:00.951Z,15.80
2018-02-15T22:29:28.392Z,13.30
2018-02-15T22:31:55.817Z,10.67
2018-02-15T22:34:24.016Z,7.13
2018-02-15T22:36:51.490Z,8.40
2018-02-15T22:39:18.952Z,8.20
2018-02-15T22:41:46.376Z,9.67
2018-02-15T22:44:14.681Z,11.40
2018-02-15T22:46:42.140Z,10.03
2018-02-15T22:49:09.603Z,7.20
2018-02-15T22:51:37.059Z,7.43
2018-02-15T22:54:04.490Z,7.53
2018-02-15T22:56:31.931Z,7.20
2018-02-15T22:59:00.137Z,7.37
2018-02-15T23:01:27.564Z,6.97
2018-02-15T23:03:55.760Z,6.60
2018-02-15T23:06:23.236Z,7.33
2018-02-15T23:08:50.662Z,7.10
2018-02-15T23:11:18.148Z,6.63
2018-02-15T23:13:45.612Z,7.00
2018-02-15T23:16:13.063Z,7.37
2018-02-15T23:18:40.558Z,14.77
2018-02-15T23:21:07.976Z,12.37
2018-02-15T23:23:35.436Z,12.10
2018-02-15T23:26:02.868Z,15.00
2018-02-15T23:28:30.352Z,17.20
2018-02-15T23:30:57.813Z,15.67
2018-02-15T23:33:25.222Z,16.70
2018-02-15T23:35:53.432Z,12.87
2018-02-15T23:38:20.865Z,11.50
2018-02-15T23:40:48.292Z,11.73
2018-02-15T23:43:15.749Z,12.20
2018-02-15T23:45:43.175Z,14.97
2018-02-15T23:48:10.615Z,13.50
2018-02-15T23:50:38.075Z,14.70
2018-02-15T23:53:05.512Z,14.10
2018-02-15T23:55:32.956Z,11.87
2018-02-15T23:58:01.174Z,8.80
